Time;durP1;ratioP1;P1;durP2;ratioP2;P2;SDS_P1;SDS_P2;PMS_P1;PMS_P2;Temp;Humidity;BMP_temperature;BMP_pressure;BME280_temperature;BME280_humidity;BME280_pressure;Samples;Min_cycle;Max_cycle;Signal;HPM_P1;HPM_P2
2021/06/07 00:01:03;;;;;;;;;;;18.00;99.90;;;;;;3593055;40;19940;-70
2021/06/07 00:03:29;;;;;;;;;;;17.90;99.90;;;;;;3600796;40;19940;-69
2021/06/07 00:05:55;;;;;;;;;;;17.90;99.90;;;;;;3599744;40;20029;-69
2021/06/07 00:08:22;;;;;;;;;;;17.90;99.90;;;;;;3600947;40;20197;-69
2021/06/07 00:10:49;;;;;;;;;;;17.90;99.90;;;;;;3600294;40;19940;-68
2021/06/07 00:13:15;;;;;;;;;;;17.90;99.90;;;;;;3596499;40;19932;-68
2021/06/07 00:15:40;;;;;;;;;;;17.90;99.90;;;;;;3596200;40;19953;-67
2021/06/07 00:18:06;;;;;;;;;;;17.90;99.90;;;;;;3600767;40;19944;-67
2021/06/07 00:20:34;;;;;;;;;;;17.90;99.90;;;;;;3596647;40;19943;-67
2021/06/07 00:23:00;;;;;;;;;;;17.80;99.90;;;;;;3597816;40;19932;-67
2021/06/07 00:25:27;;;;;;;;;;;17.80;99.90;;;;;;3599376;40;19944;-67
2021/06/07 00:27:52;;;;;;;;;;;17.80;99.90;;;;;;3594474;40;19933;-68
2021/06/07 00:30:18;;;;;;;;;;;17.80;99.90;;;;;;3598354;40;20411;-69
2021/06/07 00:32:44;;;;;;;;;;;17.80;99.90;;;;;;3596812;40;20313;-69
2021/06/07 00:35:10;;;;;;;;;;;17.80;99.90;;;;;;3600516;40;20212;-69
2021/06/07 00:37:36;;;;;;;;;;;;;;;;;;3594171;40;19932;-69
2021/06/07 00:40:02;;;;;;;;;;;;;;;;;;3601147;40;19935;-69
2021/06/07 00:42:28;;;;;;;;;;;;;;;;;;3600714;40;19928;-69
2021/06/07 00:44:54;;;;;;;;;;;;;;;;;;3594644;40;19936;-69
2021/06/07 00:47:20;;;;;;;;;;;;;;;;;;3598513;40;19950;-69
2021/06/07 00:49:46;;;;;;;;;;;;;;;;;;3600573;40;19928;-70
2021/06/07 00:52:12;;;;;;;;;;;;;;;;;;3597014;40;20166;-69
2021/06/07 00:54:38;;;;;;;;;;;;;;;;;;3593665;40;19944;-69
2021/06/07 00:57:03;;;;;;;;;;;;;;;;;;3597587;40;20010;-70
2021/06/07 00:59:29;;;;;;;;;;;;;;;;;;3596479;40;20308;-70
2021/06/07 01:04:24;;;;;;;;;;;;;;;;;;3585930;40;19948;-73
2021/06/07 01:06:49;;;;;;;;;;;;;;;;;;3584382;40;20359;-73
2021/06/07 01:09:15;;;;;;;;;;;;;;;;;;3584674;40;19972;-73
2021/06/07 01:11:41;;;;;;;;;;;;;;;;;;3582146;40;19929;-73
2021/06/07 01:14:07;;;;;;;;;;;;;;;;;;3587432;40;19936;-73
2021/06/07 01:16:33;;;;;;;;;;;;;;;;;;3585758;40;19929;-73
2021/06/07 01:18:59;;;;;;;;;;;;;;;;;;3581576;40;19931;-72
2021/06/07 01:21:25;;;;;;;;;;;;;;;;;;3577513;40;19929;-73
2021/06/07 01:23:51;;;;;;;;;;;;;;;;;;3584707;40;19937;-72
2021/06/07 01:26:17;;;;;;;;;;;;;;;;;;3581411;40;20188;-72
2021/06/07 01:28:43;;;;;;;;;;;;;;;;;;3574170;40;20289;-73
2021/06/07 01:31:11;;;;;;;;;;;;;;;;;;3571831;40;19929;-72
2021/06/07 01:33:36;;;;;;;;;;;;;;;;;;3577348;40;20278;-72
2021/06/07 01:36:02;;;;;;;;;;;;;;;;;;3578278;40;19969;-71
2021/06/07 01:38:28;;;;;;;;;;;;;;;;;;3571354;40;19936;-71
2021/06/07 01:40:54;;;;;;;;;;;;;;;;;;3574264;40;19944;-73
2021/06/07 01:43:20;;;;;;;;;;;;;;;;;;3571417;40;19936;-71
2021/06/07 01:45:46;;;;;;;;;;;;;;;;;;3580923;40;19929;-72
2021/06/07 01:48:12;;;;;;;;;;;;;;;;;;3584768;40;20178;-72
2021/06/07 01:50:38;;;;;;;;;;;;;;;;;;3571284;40;19929;-71
2021/06/07 01:53:04;;;;;;;;;;;;;;;;;;3580838;40;20197;-71
2021/06/07 01:55:30;;;;;;;;;;;;;;;;;;3580712;40;19936;-72
2021/06/07 01:57:56;;;;;;;;;;;;;;;;;;3580675;40;20265;-71
2021/06/07 02:00:22;;;;;;;;;;;;;;;;;;3584852;40;19944;-72
2021/06/07 02:02:48;;;;;;;;;;;;;;;;;;3580225;40;19933;-72
2021/06/07 02:05:13;;;;;;;;;;;;;;;;;;3580852;40;19943;-72
2021/06/07 02:07:39;;;;;;;;;;;;;;;;;;3584502;40;20017;-71
2021/06/07 02:10:05;;;;;;;;;;;;;;;;;;3582957;40;19932;-72
2021/06/07 02:12:31;;;;;;;;;;;;;;;;;;3587107;40;19960;-71
2021/06/07 02:14:58;;;;;;;;;;;;;;;;;;3578760;40;19928;-71
2021/06/07 02:17:24;;;;;;;;;;;;;;;;;;3578598;40;19965;-72
2021/06/07 02:19:49;;;;;;;;;;;;;;;;;;3583258;40;20018;-71
2021/06/07 02:22:15;;;;;;;;;;;;;;;;;;3579424;40;20192;-71
2021/06/07 02:24:41;;;;;;;;;;;;;;;;;;3582281;40;19929;-71
2021/06/07 02:27:07;;;;;;;;;;;;;;;;;;3579316;40;19928;-71
2021/06/07 02:29:34;;;;;;;;;;;;;;;;;;3574557;40;20193;-71
2021/06/07 02:32:00;;;;;;;;;;;;;;;;;;3579599;40;19935;-71
2021/06/07 02:34:26;;;;;;;;;;;;;;;;;;3584460;40;20185;-71
2021/06/07 02:36:52;;;;;;;;;;;;;;;;;;3583348;40;20193;-71
2021/06/07 02:39:21;;;;;;;;;;;;;;;;;;3578269;40;19944;-71
2021/06/07 02:41:46;;;;;;;;;;;;;;;;;;3580287;40;20022;-71
2021/06/07 02:44:12;;;;;;;;;;;;;;;;;;3569972;40;20290;-70
2021/06/07 02:46:38;;;;;;;;;;;;;;;;;;3578025;40;19937;-70
2021/06/07 02:49:04;;;;;;;;;;;;;;;;;;3579973;40;20016;-71
2021/06/07 02:51:30;;;;;;;;;;;;;;;;;;3577805;40;19929;-71
2021/06/07 02:53:56;;;;;;;;;;;;;;;;;;3584946;40;20187;-71
2021/06/07 02:56:22;;;;;;;;;;;;;;;;;;3578841;40;19929;-72
2021/06/07 02:58:48;;;;;;;;;;;;;;;;;;3582338;40;19936;-71
2021/06/07 03:01:14;;;;;;;;;;;;;;;;;;3583622;40;20267;-71
2021/06/07 03:03:40;;;;;;;;;;;;;;;;;;3577081;40;19932;-72
2021/06/07 03:06:06;;;;;;;;;;;;;;;;;;3577271;40;20307;-71
2021/06/07 03:08:32;;;;;;;;;;;;;;;;;;3580526;40;19937;-71
2021/06/07 03:10:58;;;;;;;;;;;;;;;;;;3584236;40;19936;-71
2021/06/07 03:13:24;;;;;;;;;;;;;;;;;;3574060;40;20290;-71
2021/06/07 03:15:50;;;;;;;;;;;;;;;;;;3582752;40;19928;-71
2021/06/07 03:18:15;;;;;;;;;;;;;;;;;;3584601;40;19933;-72
2021/06/07 03:20:41;;;;;;;;;;;;;;;;;;3582202;40;19938;-71
2021/06/07 03:23:07;;;;;;;;;;;;;;;;;;3574686;40;20008;-70
2021/06/07 03:25:33;;;;;;;;;;;;;;;;;;3587456;40;20305;-71
2021/06/07 03:27:59;;;;;;;;;;;;;;;;;;3570870;40;19936;-71
2021/06/07 03:30:25;;;;;;;;;;;;;;;;;;3578458;40;19933;-71
2021/06/07 03:32:51;;;;;;;;;;;;;;;;;;3565699;40;20011;-71
2021/06/07 03:35:17;;;;;;;;;;;;;;;;;;3583859;40;20026;-71
2021/06/07 03:37:43;;;;;;;;;;;;;;;;;;3583597;40;19945;-71
2021/06/07 03:40:09;;;;;;;;;;;;;;;;;;3580309;40;19960;-71
2021/06/07 03:42:35;;;;;;;;;;;;;;;;;;3580301;40;19932;-73
2021/06/07 03:45:01;;;;;;;;;;;;;;;;;;3580214;40;19929;-72
2021/06/07 03:47:26;;;;;;;;;;;;;;;;;;3580275;40;19936;-71
2021/06/07 03:49:52;;;;;;;;;;;;;;;;;;3583602;40;19946;-72
2021/06/07 03:52:18;;;;;;;;;;;;;;;;;;3574320;40;19937;-72
2021/06/07 03:54:44;;;;;;;;;;;;;;;;;;3574321;40;19936;-71
2021/06/07 03:57:10;;;;;;;;;;;;;;;;;;3587472;40;19936;-72
2021/06/07 03:59:36;;;;;;;;;;;;;;;;;;3580040;40;20300;-72
2021/06/07 04:02:03;;;;;;;;;;;;;;;;;;3582957;40;19933;-71
2021/06/07 04:04:29;;;;;;;;;;;;;;;;;;3574686;40;19939;-71
2021/06/07 04:06:55;;;;;;;;;;;;;;;;;;3579382;40;20190;-72
2021/06/07 04:09:21;;;;;;;;;;;;;;;;;;3579893;40;19932;-72
2021/06/07 04:11:47;;;;;;;;;;;;;;;;;;3568557;40;20252;-71
2021/06/07 04:14:13;;;;;;;;;;;;;;;;;;3568493;40;19940;-72
2021/06/07 04:16:39;;;;;;;;;;;;;;;;;;3585317;40;19954;-71
2021/06/07 04:19:05;;;;;;;;;;;;;;;;;;3579315;40;20280;-72
2021/06/07 04:21:31;;;;;;;;;;;;;;;;;;3578911;40;20193;-71
2021/06/07 04:23:56;;;;;;;;;;;;;;;;;;3579967;40;19937;-71
2021/06/07 04:26:22;;;;;;;;;;;;;;;;;;3580607;40;19939;-72
2021/06/07 04:28:48;;;;;;;;;;;;;;;;;;3581633;40;19945;-71
2021/06/07 04:31:14;;;;;;;;;;;;;;;;;;3580523;40;19933;-72
2021/06/07 04:33:40;;;;;;;;;;;;;;;;;;3586561;40;19932;-71
2021/06/07 04:36:06;;;;;;;;;;;;;;;;;;3590109;40;19940;-71
2021/06/07 04:38:32;;;;;;;;;;;;;;;;;;3588126;40;19952;-71
2021/06/07 04:40:58;;;;;;;;;;;;;;;;;;3581519;40;19982;-72
2021/06/07 04:43:24;;;;;;;;;;;;;;;;;;3585723;40;19948;-72
2021/06/07 04:45:50;;;;;;;;;;;;;;;;;;3584451;40;20263;-72
2021/06/07 04:48:16;;;;;;;;;;;;;;;;;;3584934;40;19933;-71
2021/06/07 04:50:42;;;;;;;;;;;;;;;;;;3581221;40;19939;-71
2021/06/07 04:53:08;;;;;;;;;;;;;;;;;;3581129;40;20017;-72
2021/06/07 04:55:33;;;;;;;;;;;;;;;;;;3581218;40;19937;-71
2021/06/07 04:57:59;;;;;;;;;;;;;;;;;;3585819;40;20294;-71
2021/06/07 05:00:25;;;;;;;;;;;;;;;;;;3582417;40;19936;-72
2021/06/07 05:02:51;;;;;;;;;;;;;;;;;;3577229;40;19964;-71
2021/06/07 05:05:17;;;;;;;;;;;;;;;;;;3584808;40;20259;-72
2021/06/07 05:07:43;;;;;;;;;;;;;;;;;;3583929;40;19933;-71
2021/06/07 05:10:09;;;;;;;;;;;;;;;;;;3582387;40;19933;-71
2021/06/07 05:12:35;;;;;;;;;;;;;;;;;;3588158;40;19933;-71
2021/06/07 05:15:01;;;;;;;;;;;;;;;;;;3580855;40;19944;-71
2021/06/07 05:17:27;;;;;;;;;;;;;;;;;;3582870;40;20013;-71
2021/06/07 05:19:53;;;;;;;;;;;;;;;;;;3578697;40;19933;-71
2021/06/07 05:22:19;;;;;;;;;;;;;;;;;;3583044;40;19933;-71
2021/06/07 05:24:46;;;;;;;;;;;;;;;;;;3584896;40;19944;-71
2021/06/07 05:27:11;;;;;;;;;;;;;;;;;;3580273;40;20051;-71
2021/06/07 05:29:37;;;;;;;;;;;;;;;;;;3582229;40;20309;-72
2021/06/07 05:32:05;;;;;;;;;;;18.00;99.90;;;;;;3586515;40;20357;-72
2021/06/07 05:34:31;;;;;;;;;;;;;;;;;;3581823;40;20268;-72
2021/06/07 05:36:57;;;;;;;;;;;;;;;;;;3581210;40;19941;-72
2021/06/07 05:39:23;;;;;;;;;;;;;;;;;;3580223;40;19932;-71
2021/06/07 05:41:49;;;;;;;;;;;;;;;;;;3575909;40;19943;-72
2021/06/07 05:44:15;;;;;;;;;;;;;;;;;;3580890;40;19939;-72
2021/06/07 05:46:41;;;;;;;;;;;;;;;;;;3586095;40;20282;-71
2021/06/07 05:49:07;;;;;;;;;;;;;;;;;;3581081;40;19944;-71
2021/06/07 05:51:34;;;;;;;;;;;18.00;99.90;;;;;;3582784;40;19940;-71
2021/06/07 05:53:59;;;;;;;;;;;18.40;99.90;;;;;;3579361;40;19951;-71
2021/06/07 05:56:25;;;;;;;;;;;18.50;99.90;;;;;;3580689;40;20197;-71
2021/06/07 05:58:56;;;;;;;;;;;18.60;99.90;;;;;;3588852;40;19936;-71
2021/06/07 06:01:22;;;;;;;;;;;18.60;99.90;;;;;;3575958;40;20312;-71
2021/06/07 06:03:48;;;;;;;;;;;;;;;;;;3584965;40;19928;-72
2021/06/07 06:06:14;;;;;;;;;;;;;;;;;;3576904;40;20205;-72
2021/06/07 06:08:41;;;;;;;;;;;18.70;99.90;;;;;;3580611;40;20266;-72
2021/06/07 06:11:07;;;;;;;;;;;18.90;99.90;;;;;;3580846;40;19936;-71
2021/06/07 06:13:33;;;;;;;;;;;18.90;99.90;;;;;;3571063;40;19940;-72
2021/06/07 06:15:59;;;;;;;;;;;18.90;99.90;;;;;;3574314;40;19932;-71
2021/06/07 06:18:24;;;;;;;;;;;19.00;99.90;;;;;;3578121;40;20174;-71
2021/06/07 06:20:50;;;;;;;;;;;19.00;99.90;;;;;;3580999;40;19933;-72
2021/06/07 06:23:16;;;;;;;;;;;18.90;99.90;;;;;;3571334;40;19940;-72
2021/06/07 06:25:41;;;;;;;;;;;;;;;;;;3581071;40;19948;-72
2021/06/07 06:28:07;;;;;;;;;;;;;;;;;;3586605;40;20163;-71
2021/06/07 06:30:33;;;;;;;;;;;;;;;;;;3579380;40;19972;-72
2021/06/07 06:32:59;;;;;;;;;;;;;;;;;;3574236;40;19929;-71
2021/06/07 06:35:25;;;;;;;;;;;;;;;;;;3580860;40;19936;-72
2021/06/07 06:37:51;;;;;;;;;;;;;;;;;;3580685;40;20273;-72
2021/06/07 06:40:18;;;;;;;;;;;;;;;;;;3580648;40;20269;-72
2021/06/07 06:42:44;;;;;;;;;;;;;;;;;;3580395;40;20048;-70
2021/06/07 06:45:10;;;;;;;;;;;;;;;;;;3579455;40;19945;-71
2021/06/07 06:47:37;;;;;;;;;;;19.30;99.90;;;;;;3576140;40;19929;-71
2021/06/07 06:50:04;;;;;;;;;;;19.30;99.90;;;;;;3569713;40;20019;-72
2021/06/07 06:52:31;;;;;;;;;;;19.40;99.90;;;;;;3587586;40;19932;-72
2021/06/07 06:54:56;;;;;;;;;;;19.40;99.90;;;;;;3580679;40;20312;-72
2021/06/07 06:57:22;;;;;;;;;;;;;;;;;;3569883;40;19933;-72
2021/06/07 06:59:48;;;;;;;;;;;;;;;;;;3579721;40;19941;-71
2021/06/07 07:02:14;;;;;;;;;;;;;;;;;;3578715;40;19929;-71
2021/06/07 07:04:40;;;;;;;;;;;;;;;;;;3579277;40;19957;-71
2021/06/07 07:07:06;;;;;;;;;;;;;;;;;;3576473;40;19929;-71
2021/06/07 07:09:33;;;;;;;;;;;20.10;99.90;;;;;;3586665;40;20278;-71
2021/06/07 07:11:59;;;;;;;;;;;;;;;;;;3572121;40;20328;-71
2021/06/07 07:14:25;;;;;;;;;;;20.30;99.90;;;;;;3585168;40;19933;-71
2021/06/07 07:16:52;;;;;;;;;;;;;;;;;;3582371;40;19933;-71
2021/06/07 07:19:20;;;;;;;;;;;;;;;;;;3575683;40;20202;-71
2021/06/07 07:21:46;;;;;;;;;;;;;;;;;;3570707;40;19940;-71
2021/06/07 07:24:12;;;;;;;;;;;;;;;;;;3589630;40;19928;-72
2021/06/07 07:26:39;;;;;;;;;;;;;;;;;;3580692;40;19944;-71
2021/06/07 07:29:04;;;;;;;;;;;;;;;;;;3581195;40;20004;-71
2021/06/07 07:31:30;;;;;;;;;;;;;;;;;;3581401;40;20294;-71
2021/06/07 07:33:57;;;;;;;;;;;20.80;99.90;;;;;;3575429;40;19929;-71
2021/06/07 07:36:23;;;;;;;;;;;;;;;;;;3570472;40;19949;-71
2021/06/07 07:38:49;;;;;;;;;;;;;;;;;;3579949;40;20205;-71
2021/06/07 07:41:15;;;;;;;;;;;;;;;;;;3579922;40;19958;-70
2021/06/07 07:43:41;;;;;;;;;;;;;;;;;;3581556;40;19955;-71
2021/06/07 07:46:07;;;;;;;;;;;;;;;;;;3570221;40;19939;-71
2021/06/07 07:48:33;;;;;;;;;;;;;;;;;;3580438;40;19940;-70
2021/06/07 07:50:59;;;;;;;;;;;;;;;;;;3572556;40;19941;-71
2021/06/07 07:53:28;;;;;;;;;;;;;;;;;;3579792;40;19940;-71
2021/06/07 07:55:54;;;;;;;;;;;;;;;;;;3573038;40;19952;-71
2021/06/07 07:58:19;;;;;;;;;;;;;;;;;;3582943;40;19933;-70
2021/06/07 08:00:47;;;;;;;;;;;;;;;;;;3580284;40;19932;-70
2021/06/07 08:03:14;;;;;;;;;;;21.20;99.90;;;;;;3582260;40;19936;-71
2021/06/07 08:05:40;;;;;;;;;;;22.30;99.90;;;;;;3580642;40;19937;-71
2021/06/07 08:08:06;;;;;;;;;;;22.50;99.90;;;;;;3571519;40;19940;-71
2021/06/07 08:10:32;;;;;;;;;;;22.60;99.90;;;;;;3580590;40;19933;-71
2021/06/07 08:12:59;;;;;;;;;;;;;;;;;;3569332;40;19929;-71
2021/06/07 08:15:25;;;;;;;;;;;;;;;;;;3579175;40;19983;-72
2021/06/07 08:17:51;;;;;;;;;;;;;;;;;;3581157;40;19937;-71
2021/06/07 08:20:19;;;;;;;;;;;23.50;99.90;;;;;;3580937;40;19928;-71
2021/06/07 08:22:46;;;;;;;;;;;23.30;99.90;;;;;;3581260;40;19937;-71
2021/06/07 08:25:12;;;;;;;;;;;23.30;99.90;;;;;;3571777;40;19963;-71
2021/06/07 08:27:37;;;;;;;;;;;23.50;99.90;;;;;;3571266;40;19932;-72
2021/06/07 08:30:04;;;;;;;;;;;23.50;99.90;;;;;;3580998;40;20214;-71
2021/06/07 08:32:30;;;;;;;;;;;23.40;99.90;;;;;;3580907;40;19948;-72
2021/06/07 08:34:55;;;;;;;;;;;23.40;99.90;;;;;;3585619;40;19936;-71
2021/06/07 08:37:22;;;;;;;;;;;23.50;99.90;;;;;;3583596;40;19977;-71
2021/06/07 08:39:48;;;;;;;;;;;23.50;99.90;;;;;;3584735;40;20377;-71
2021/06/07 08:42:14;;;;;;;;;;;23.50;99.90;;;;;;3573360;40;19934;-71
2021/06/07 08:44:40;;;;;;;;;;;23.30;99.90;;;;;;3570200;40;19940;-72
2021/06/07 08:47:06;;;;;;;;;;;23.20;99.90;;;;;;3584883;40;19933;-71
2021/06/07 08:49:32;;;;;;;;;;;23.30;99.90;;;;;;3589322;40;20014;-71
2021/06/07 08:51:57;;;;;;;;;;;23.30;99.90;;;;;;3584675;40;19932;-72
2021/06/07 08:54:25;;;;;;;;;;;23.10;99.90;;;;;;3580898;40;19932;-71
2021/06/07 08:56:50;;;;;;;;;;;22.90;99.90;;;;;;3580882;40;20035;-71
2021/06/07 08:59:16;;;;;;;;;;;22.80;99.90;;;;;;3580755;40;19937;-70
2021/06/07 09:01:42;;;;;;;;;;;22.90;99.90;;;;;;3580837;40;19939;-71
2021/06/07 09:04:12;;;;;;;;;;;23.00;99.90;;;;;;3583742;40;20019;-71
2021/06/07 09:06:39;;;;;;;;;;;23.00;99.90;;;;;;3571365;40;19939;-71
2021/06/07 09:09:06;;;;;;;;;;;23.00;99.90;;;;;;3583820;40;19972;-71
2021/06/07 09:11:41;;;;;;;;;;;23.10;99.90;;;;;;3580932;40;19932;-71
2021/06/07 09:14:15;;;;;;;;;;;23.10;99.90;;;;;;3579425;40;19941;-71
2021/06/07 09:16:40;;;;;;;;;;;23.00;99.90;;;;;;3587352;40;20192;-71
2021/06/07 09:19:15;;;;;;;;;;;23.00;99.90;;;;;;3583805;40;19933;-72
2021/06/07 09:21:41;;;;;;;;;;;22.90;99.90;;;;;;3585363;40;20274;-71
2021/06/07 09:24:07;;;;;;;;;;;23.00;99.90;;;;;;3580664;40;19939;-71
2021/06/07 09:26:33;;;;;;;;;;;23.20;99.90;;;;;;3580832;40;19940;-71
2021/06/07 09:29:03;;;;;;;;;;;23.40;99.90;;;;;;3580819;40;20241;-72
2021/06/07 09:31:30;;;;;;;;;;;23.70;99.90;;;;;;3580837;40;19940;-71
2021/06/07 09:33:56;;;;;;;;;;;23.60;99.90;;;;;;3580913;40;20121;-72
2021/06/07 09:36:24;;;;;;;;;;;23.50;99.90;;;;;;3584525;40;20282;-71
2021/06/07 09:38:50;;;;;;;;;;;;;;;;;;3584414;40;19941;-72
2021/06/07 09:41:16;;;;;;;;;;;;;;;;;;3581056;40;19960;-71
2021/06/07 09:43:46;;;;;;;;;;;23.60;99.90;;;;;;3581061;40;19933;-72
2021/06/07 09:46:13;;;;;;;;;;;24.10;99.90;;;;;;3580901;40;20006;-71
2021/06/07 09:48:39;;;;;;;;;;;;;;;;;;3580610;40;19937;-71
2021/06/07 09:51:05;;;;;;;;;;;;;;;;;;3580825;40;19965;-71
2021/06/07 09:53:31;;;;;;;;;;;;;;;;;;3580865;40;20198;-70
2021/06/07 09:55:56;;;;;;;;;;;;;;;;;;3583895;40;19944;-71
2021/06/07 09:58:30;;;;;;;;;;;24.30;99.90;;;;;;3584387;40;19933;-71
2021/06/07 10:00:56;;;;;;;;;;;;;;;;;;3583282;40;19936;-70
2021/06/07 10:03:21;;;;;;;;;;;;;;;;;;3583030;40;20329;-71
2021/06/07 10:05:47;;;;;;;;;;;;;;;;;;3584828;40;19929;-76
2021/06/07 10:08:15;;;;;;;;;;;25.40;99.90;;;;;;3585004;40;20366;-71
2021/06/07 10:10:41;;;;;;;;;;;;;;;;;;3582870;40;19936;-71
2021/06/07 10:13:08;;;;;;;;;;;25.80;99.90;;;;;;3580500;40;19933;-71
2021/06/07 10:15:35;;;;;;;;;;;25.80;99.90;;;;;;3567507;40;19941;-71
2021/06/07 10:18:01;;;;;;;;;;;25.20;98.60;;;;;;3585257;40;20193;-71
2021/06/07 10:22:59;;;;;;;;;;;25.40;98.50;;;;;;3580506;40;19960;-71
2021/06/07 10:25:25;;;;;;;;;;;;;;;;;;3570751;40;19939;-72
2021/06/07 10:27:51;;;;;;;;;;;;;;;;;;3570629;40;19933;-72
2021/06/07 10:30:17;;;;;;;;;;;;;;;;;;3576648;40;19961;-72
2021/06/07 10:32:43;;;;;;;;;;;;;;;;;;3573912;40;19928;-72
2021/06/07 10:35:09;;;;;;;;;;;;;;;;;;3574912;40;19937;-71
2021/06/07 10:37:35;;;;;;;;;;;;;;;;;;3578630;40;19936;-72
2021/06/07 10:40:01;;;;;;;;;;;;;;;;;;3580325;40;19929;-72
2021/06/07 10:42:27;;;;;;;;;;;;;;;;;;3578961;40;20289;-71
2021/06/07 10:44:53;;;;;;;;;;;;;;;;;;3579374;40;19929;-72
2021/06/07 10:47:19;;;;;;;;;;;;;;;;;;3579599;40;19929;-72
2021/06/07 10:49:45;;;;;;;;;;;;;;;;;;3582928;40;20278;-71
2021/06/07 10:52:11;;;;;;;;;;;;;;;;;;3581031;40;19990;-71
2021/06/07 10:54:38;;;;;;;;;;;26.40;97.50;;;;;;3581480;40;19941;-72
2021/06/07 10:57:34;;;;;;;;;;;25.20;97.70;;;;;;3561511;40;20171;-71
2021/06/07 11:00:01;;;;;;;;;;;25.00;98.10;;;;;;3536998;40;20312;-72
2021/06/07 11:02:32;;;;;;;;;;;24.90;99.60;;;;;;3559141;40;19956;-72
2021/06/07 11:05:02;;;;;;;;;;;24.90;99.90;;;;;;3576952;40;19933;-71
2021/06/07 11:07:28;;;;;;;;;;;25.10;99.90;;;;;;3583189;40;19932;-71
2021/06/07 11:10:19;;;;;;;;;;;25.20;99.90;;;;;;3581694;40;20333;-72
2021/06/07 11:12:45;;;;;;;;;;;25.20;99.90;;;;;;3581222;40;20202;-72
2021/06/07 11:15:13;;;;;;;;;;;25.50;99.90;;;;;;3580000;40;20198;-72
2021/06/07 11:17:39;;;;;;;;;;;;;;;;;;3577375;40;19941;-71
2021/06/07 11:20:05;;;;;;;;;;;;;;;;;;3579108;40;19958;-71
2021/06/07 11:22:31;;;;;;;;;;;;;;;;;;3579340;40;19955;-72
2021/06/07 11:24:58;;;;;;;;;;;;;;;;;;3576139;40;19972;-70
2021/06/07 11:27:36;;;;;;;;;;;25.90;99.90;;;;;;3579462;40;19963;-71
2021/06/07 11:30:02;;;;;;;;;;;;;;;;;;3576654;40;19945;-71
2021/06/07 11:32:27;;;;;;;;;;;;;;;;;;3579086;40;19932;-73
2021/06/07 11:34:56;;;;;;;;;;;;;;;;;;3569799;40;19936;-72
2021/06/07 11:37:22;;;;;;;;;;;;;;;;;;3579653;40;20031;-72
2021/06/07 11:39:49;;;;;;;;;;;27.70;97.10;;;;;;3580677;40;19928;-72
2021/06/07 11:42:15;;;;;;;;;;;27.40;95.70;;;;;;3572433;40;20310;-72
2021/06/07 11:44:53;;;;;;;;;;;27.20;97.50;;;;;;3579828;40;19988;-73
2021/06/07 11:47:20;;;;;;;;;;;27.10;97.50;;;;;;3581808;40;19944;-73
2021/06/07 11:49:46;;;;;;;;;;;;;;;;;;3567974;40;20009;-73
2021/06/07 11:52:12;;;;;;;;;;;;;;;;;;3563366;40;19929;-72
2021/06/07 11:54:38;;;;;;;;;;;;;;;;;;3568875;40;19929;-72
2021/06/07 11:57:03;;;;;;;;;;;;;;;;;;3563113;40;19929;-72
2021/06/07 11:59:30;;;;;;;;;;;26.90;96.70;;;;;;3565077;40;20195;-73
2021/06/07 12:01:57;;;;;;;;;;;25.80;98.10;;;;;;3565337;40;19984;-73
2021/06/07 12:04:23;;;;;;;;;;;;;;;;;;3562653;40;19937;-72
2021/06/07 12:06:49;;;;;;;;;;;;;;;;;;3570375;40;19955;-73
2021/06/07 12:09:15;;;;;;;;;;;;;;;;;;3571189;40;19933;-72
2021/06/07 12:11:41;;;;;;;;;;;;;;;;;;3565722;40;19939;-73
2021/06/07 12:14:07;;;;;;;;;;;;;;;;;;3565197;40;19939;-72
2021/06/07 12:16:33;;;;;;;;;;;;;;;;;;3571617;40;20297;-73
2021/06/07 12:19:06;;;;;;;;;;;25.50;98.40;;;;;;3562308;40;19974;-72
2021/06/07 12:21:32;;;;;;;;;;;24.70;99.20;;;;;;3571670;40;19989;-72
2021/06/07 12:24:11;;;;;;;;;;;24.70;99.90;;;;;;3570333;40;19940;-73
2021/06/07 12:29:29;;;;;;;;;;;24.60;99.60;;;;;;3582859;40;19943;-72
2021/06/07 12:32:12;;;;;;;;;;;24.60;99.90;;;;;;3589581;40;19933;-73
2021/06/07 12:34:56;;;;;;;;;;;24.40;99.50;;;;;;3577276;40;19933;-72
2021/06/07 12:37:27;;;;;;;;;;;24.30;99.80;;;;;;3573990;40;20343;-73
2021/06/07 12:40:06;;;;;;;;;;;24.30;98.70;;;;;;3582922;40;19959;-73
2021/06/07 12:42:32;;;;;;;;;;;24.30;98.10;;;;;;3583460;40;19989;-72
2021/06/07 12:45:01;;;;;;;;;;;24.30;98.60;;;;;;3583595;40;19969;-71
2021/06/07 12:47:27;;;;;;;;;;;24.30;99.90;;;;;;3572632;40;19940;-71
2021/06/07 12:49:53;;;;;;;;;;;24.20;99.90;;;;;;3571364;40;20190;-73
2021/06/07 12:52:18;;;;;;;;;;;24.20;99.90;;;;;;3581032;40;19980;-72
2021/06/07 12:54:46;;;;;;;;;;;24.00;99.90;;;;;;3574324;40;20276;-72
2021/06/07 12:57:12;;;;;;;;;;;;;;;;;;3582793;40;20022;-72
2021/06/07 12:59:38;;;;;;;;;;;;;;;;;;3586572;40;19935;-72
2021/06/07 13:02:08;;;;;;;;;;;;;;;;;;3584446;40;19933;-72
2021/06/07 13:04:36;;;;;;;;;;;;;;;;;;3579263;40;20245;-72
2021/06/07 13:07:04;;;;;;;;;;;;;;;;;;3581853;40;19940;-72
2021/06/07 13:09:30;;;;;;;;;;;;;;;;;;3580564;40;19937;-73
2021/06/07 13:11:56;;;;;;;;;;;;;;;;;;3584160;40;19928;-73
2021/06/07 13:14:23;;;;;;;;;;;;;;;;;;3582207;40;19947;-72
2021/06/07 13:16:48;;;;;;;;;;;;;;;;;;3581982;40;19973;-72
2021/06/07 13:19:14;;;;;;;;;;;;;;;;;;3581508;40;19929;-73
2021/06/07 13:21:45;;;;;;;;;;;;;;;;;;3581139;40;20274;-73
2021/06/07 13:24:11;;;;;;;;;;;;;;;;;;3572551;40;20193;-72
2021/06/07 13:26:37;;;;;;;;;;;;;;;;;;3572558;40;19928;-72
2021/06/07 13:29:03;;;;;;;;;;;;;;;;;;3580129;40;19972;-72
2021/06/07 13:31:29;;;;;;;;;;;;;;;;;;3581788;40;20360;-72
2021/06/07 13:33:55;;;;;;;;;;;;;;;;;;3581674;40;19936;-72
2021/06/07 13:36:21;;;;;;;;;;;;;;;;;;3581440;40;20029;-72
2021/06/07 13:38:46;;;;;;;;;;;;;;;;;;3581123;40;20015;-72
2021/06/07 13:41:12;;;;;;;;;;;;;;;;;;3571913;40;20009;-72
2021/06/07 13:43:38;;;;;;;;;;;;;;;;;;3581761;40;20014;-73
2021/06/07 13:46:04;;;;;;;;;;;;;;;;;;3581583;40;19928;-72
2021/06/07 13:48:30;;;;;;;;;;;;;;;;;;3580075;40;19960;-72
2021/06/07 13:50:56;;;;;;;;;;;;;;;;;;3581903;40;19933;-72
2021/06/07 13:53:22;;;;;;;;;;;;;;;;;;3581497;40;19941;-72
2021/06/07 13:55:48;;;;;;;;;;;;;;;;;;3581519;40;20375;-72
2021/06/07 13:58:14;;;;;;;;;;;;;;;;;;3572045;40;19933;-73
2021/06/07 14:00:40;;;;;;;;;;;;;;;;;;3579586;40;20014;-72
2021/06/07 14:03:06;;;;;;;;;;;;;;;;;;3583997;40;20053;-72
2021/06/07 14:05:32;;;;;;;;;;;;;;;;;;3576975;40;19929;-72
2021/06/07 14:07:58;;;;;;;;;;;;;;;;;;3585645;40;20014;-72
2021/06/07 14:10:24;;;;;;;;;;;;;;;;;;3586563;40;19944;-72
2021/06/07 14:12:50;;;;;;;;;;;;;;;;;;3581590;40;19929;-72
2021/06/07 14:15:16;;;;;;;;;;;;;;;;;;3581443;40;19928;-73
2021/06/07 14:17:42;;;;;;;;;;;;;;;;;;3581020;40;19928;-72
2021/06/07 14:20:07;;;;;;;;;;;;;;;;;;3579426;40;20182;-72
2021/06/07 14:25:18;;;;;;;;;;;;;;;;;;3571429;40;20018;-72
2021/06/07 14:27:44;;;;;;;;;;;;;;;;;;3564284;40;19940;-72
2021/06/07 14:30:10;;;;;;;;;;;;;;;;;;3570554;40;20277;-72
2021/06/07 14:32:36;;;;;;;;;;;;;;;;;;3571290;40;20019;-72
2021/06/07 14:35:02;;;;;;;;;;;;;;;;;;3571302;40;19933;-73
2021/06/07 14:37:27;;;;;;;;;;;;;;;;;;3571483;40;20281;-74
2021/06/07 14:39:53;;;;;;;;;;;;;;;;;;3571947;40;19939;-72
2021/06/07 14:42:19;;;;;;;;;;;;;;;;;;3562083;40;19951;-73
2021/06/07 14:44:45;;;;;;;;;;;;;;;;;;3568822;40;20023;-72
2021/06/07 14:47:11;;;;;;;;;;;;;;;;;;3571361;40;20206;-73
2021/06/07 14:49:37;;;;;;;;;;;;;;;;;;3571312;40;20231;-72
2021/06/07 14:52:04;;;;;;;;;;;;;;;;;;3570328;40;19940;-72
2021/06/07 14:54:29;;;;;;;;;;;;;;;;;;3571415;40;19933;-72
2021/06/07 14:56:56;;;;;;;;;;;;;;;;;;3571388;40;19940;-73
2021/06/07 14:59:22;;;;;;;;;;;;;;;;;;3567360;40;19933;-73
2021/06/07 15:01:47;;;;;;;;;;;;;;;;;;3562946;40;20235;-72
2021/06/07 15:04:13;;;;;;;;;;;;;;;;;;3571239;40;19941;-73
2021/06/07 15:06:39;;;;;;;;;;;;;;;;;;3570273;40;20291;-72
2021/06/07 15:09:05;;;;;;;;;;;;;;;;;;3567059;40;19930;-71
2021/06/07 15:11:32;;;;;;;;;;;;;;;;;;3570483;40;20195;-73
2021/06/07 15:13:58;;;;;;;;;;;;;;;;;;3570202;40;19984;-73
2021/06/07 15:16:24;;;;;;;;;;;;;;;;;;3570349;40;19950;-73
2021/06/07 15:18:50;;;;;;;;;;;;;;;;;;3561142;40;19929;-72
2021/06/07 15:21:15;;;;;;;;;;;;;;;;;;3574679;40;19932;-72
2021/06/07 15:23:41;;;;;;;;;;;;;;;;;;3579785;40;20014;-73
2021/06/07 15:26:07;;;;;;;;;;;;;;;;;;3578067;40;19937;-73
2021/06/07 15:28:33;;;;;;;;;;;;;;;;;;3583868;40;19941;-73
2021/06/07 15:30:59;;;;;;;;;;;;;;;;;;3581835;40;19941;-73
2021/06/07 15:33:26;;;;;;;;;;;;;;;;;;3571641;40;20351;-72
2021/06/07 15:35:52;;;;;;;;;;;;;;;;;;3581163;40;19985;-73
2021/06/07 15:38:18;;;;;;;;;;;;;;;;;;3581087;40;19936;-72
2021/06/07 15:40:44;;;;;;;;;;;;;;;;;;3570251;40;19929;-72
2021/06/07 15:43:10;;;;;;;;;;;;;;;;;;3577903;40;19969;-72
2021/06/07 15:45:36;;;;;;;;;;;;;;;;;;3577869;40;19933;-72
2021/06/07 15:48:04;;;;;;;;;;;;;;;;;;3575585;40;19944;-73
2021/06/07 15:50:30;;;;;;;;;;;;;;;;;;3576337;40;19944;-73
2021/06/07 15:52:57;;;;;;;;;;;;;;;;;;3588602;40;19932;-72
2021/06/07 15:55:23;;;;;;;;;;;;;;;;;;3580899;40;20010;-72
2021/06/07 15:57:49;;;;;;;;;;;;;;;;;;3583883;40;20273;-72
2021/06/07 16:00:15;;;;;;;;;;;;;;;;;;3584511;40;20293;-72
2021/06/07 16:02:41;;;;;;;;;;;;;;;;;;3574711;40;19925;-73
2021/06/07 16:05:07;;;;;;;;;;;;;;;;;;3579321;40;20308;-73